Time;durP1;ratioP1;P1;durP2;ratioP2;P2;SDS_P1;SDS_P2;PMS_P1;PMS_P2;Temp;Humidity;BMP_temperature;BMP_pressure;BME280_temperature;BME280_humidity;BME280_pressure;Samples;Min_cycle;Max_cycle;Signal;HPM_P1;HPM_P2
2021/05/26 00:01:32;;;;;;;0.20;0.20;;;9.00;77.90;;;;;;5053756;28;20377;-72
2021/05/26 00:03:57;;;;;;;0.10;0.10;;;8.80;78.90;;;;;;5054340;28;20048;-72
2021/05/26 00:06:23;;;;;;;0.20;0.20;;;8.80;79.00;;;;;;5054704;28;20048;-72
2021/05/26 00:08:49;;;;;;;0.10;0.10;;;9.00;78.50;;;;;;5054574;28;20098;-72
2021/05/26 00:11:17;;;;;;;0.20;0.20;;;9.10;77.40;;;;;;5054376;28;20504;-72
2021/05/26 00:13:44;;;;;;;0.20;0.20;;;9.20;77.30;;;;;;5054437;28;20021;-72
2021/05/26 00:16:11;;;;;;;0.15;0.15;;;9.20;76.90;;;;;;5036357;28;20541;-72
2021/05/26 00:18:37;;;;;;;0.20;0.20;;;9.10;77.00;;;;;;5036485;28;20114;-72
2021/05/26 00:21:04;;;;;;;0.10;0.10;;;8.90;78.50;;;;;;5036468;28;20052;-72
2021/05/26 00:23:29;;;;;;;0.22;0.22;;;9.00;78.10;;;;;;5036321;28;20048;-72
2021/05/26 00:25:55;;;;;;;0.30;0.30;;;8.90;78.20;;;;;;5054067;28;20064;-72
2021/05/26 00:28:21;;;;;;;0.20;0.20;;;8.80;78.40;;;;;;5054245;28;20032;-72
2021/05/26 00:30:52;;;;;;;0.20;0.20;;;8.80;79.30;;;;;;5054037;28;20044;-72
2021/05/26 00:33:18;;;;;;;0.20;0.20;;;8.90;78.90;;;;;;5054186;28;20396;-72
2021/05/26 00:35:44;;;;;;;0.30;0.30;;;9.00;79.00;;;;;;5035896;28;20031;-72
2021/05/26 00:38:11;;;;;;;0.20;0.20;;;9.00;78.50;;;;;;5054055;28;20075;-72
2021/05/26 00:40:37;;;;;;;0.20;0.20;;;9.00;78.30;;;;;;5053891;28;20538;-72
2021/05/26 00:43:03;;;;;;;0.20;0.20;;;8.70;79.40;;;;;;5053874;28;20491;-72
2021/05/26 00:45:29;;;;;;;0.10;0.10;;;8.70;80.20;;;;;;5035975;28;20116;-72
2021/05/26 00:47:55;;;;;;;1.35;0.98;;;8.70;80.00;;;;;;5035958;28;20520;-72
2021/05/26 00:50:26;;;;;;;0.20;0.20;;;8.60;80.00;;;;;;5053713;28;20495;-72
2021/05/26 00:52:53;;;;;;;0.52;0.50;;;8.30;81.30;;;;;;5036004;28;20476;-72
2021/05/26 00:55:20;;;;;;;0.20;0.20;;;8.20;81.40;;;;;;5035764;28;20112;-72
2021/05/26 00:57:50;;;;;;;0.20;0.20;;;8.20;81.90;;;;;;5053433;28;20017;-72
2021/05/26 01:00:20;;;;;;;0.20;0.20;;;8.20;82.50;;;;;;5053505;28;20025;-72
2021/05/26 01:02:49;;;;;;;0.22;0.22;;;8.20;82.50;;;;;;5053590;28;20024;-72
2021/05/26 01:05:15;;;;;;;0.30;0.30;;;8.40;82.10;;;;;;5053624;28;20017;-72
2021/05/26 01:07:42;;;;;;;0.20;0.20;;;8.30;81.70;;;;;;5053362;28;20033;-72
2021/05/26 01:10:11;;;;;;;0.20;0.20;;;8.20;82.30;;;;;;5053188;28;20048;-72
2021/05/26 01:12:37;;;;;;;0.30;0.30;;;8.10;83.40;;;;;;5035438;28;20396;-72
2021/05/26 01:15:05;;;;;;;0.30;0.30;;;7.90;83.60;;;;;;5053261;28;20098;-72
2021/05/26 01:17:33;;;;;;;0.50;0.50;;;7.80;84.30;;;;;;5053127;28;20032;-72
2021/05/26 01:19:59;;;;;;;0.20;0.20;;;7.70;85.00;;;;;;5018798;28;20024;-72
2021/05/26 01:22:25;;;;;;;0.52;0.52;;;7.90;85.20;;;;;;5035366;28;20469;-71
2021/05/26 01:24:51;;;;;;;0.30;0.30;;;8.00;84.90;;;;;;5053027;28;20027;-72
2021/05/26 01:27:16;;;;;;;0.30;0.30;;;7.90;85.20;;;;;;5052933;28;20029;-72
2021/05/26 01:29:42;;;;;;;0.20;0.20;;;7.80;85.80;;;;;;5052991;28;20479;-72
2021/05/26 01:32:08;;;;;;;0.20;0.20;;;7.70;85.90;;;;;;5052925;28;20025;-72
2021/05/26 01:34:34;;;;;;;0.20;0.20;;;7.60;86.20;;;;;;5052854;28;20045;-72
2021/05/26 01:36:59;;;;;;;0.95;0.95;;;7.70;86.50;;;;;;5052492;28;20029;-72
2021/05/26 01:39:25;;;;;;;0.55;0.55;;;7.60;86.40;;;;;;5052789;28;20021;-72
2021/05/26 01:41:51;;;;;;;0.35;0.35;;;7.70;86.50;;;;;;5052760;28;20044;-72
2021/05/26 01:44:16;;;;;;;0.25;0.25;;;7.60;86.90;;;;;;5052757;28;20413;-72
2021/05/26 01:46:42;;;;;;;0.30;0.30;;;7.50;87.60;;;;;;5034682;28;20033;-71
2021/05/26 01:49:09;;;;;;;0.30;0.30;;;7.60;88.50;;;;;;5052756;28;20392;-72
2021/05/26 01:51:35;;;;;;;0.20;0.20;;;7.50;88.60;;;;;;5052507;28;20408;-72
2021/05/26 01:54:03;;;;;;;0.20;0.20;;;7.40;89.90;;;;;;5052543;28;20540;-72
2021/05/26 01:56:30;;;;;;;0.30;0.30;;;7.40;90.10;;;;;;5052328;28;20024;-72
2021/05/26 01:58:57;;;;;;;0.20;0.20;;;7.40;90.10;;;;;;5052767;28;20390;-72
2021/05/26 02:01:25;;;;;;;0.68;0.68;;;7.60;90.30;;;;;;5034595;28;20032;-71
2021/05/26 02:03:52;;;;;;;0.32;0.32;;;7.70;89.40;;;;;;5034365;28;20028;-71
2021/05/26 02:06:21;;;;;;;0.20;0.20;;;7.80;88.60;;;;;;5052226;28;20029;-71
2021/05/26 02:08:49;;;;;;;0.30;0.30;;;7.90;88.50;;;;;;5034463;28;20040;-71
2021/05/26 02:14:04;;;;;;;0.20;0.20;;;7.60;89.50;;;;;;5034235;28;20036;-71
2021/05/26 02:16:30;;;;;;;0.30;0.30;;;7.70;88.80;;;;;;5034117;28;20028;-71
2021/05/26 02:18:56;;;;;;;0.38;0.38;;;7.60;88.90;;;;;;5034336;28;20025;-71
2021/05/26 02:21:22;;;;;;;0.30;0.30;;;7.60;89.50;;;;;;5052025;28;20472;-73
2021/05/26 02:23:48;;;;;;;0.20;0.20;;;7.50;89.60;;;;;;5052140;28;20561;-71
2021/05/26 02:26:14;;;;;;;0.15;0.15;;;7.50;89.90;;;;;;5033842;28;20025;-71
2021/05/26 02:28:40;;;;;;;0.50;0.50;;;7.50;89.80;;;;;;5051893;28;20476;-71
2021/05/26 02:31:07;;;;;;;0.20;0.20;;;7.40;90.10;;;;;;5034020;28;20028;-71
2021/05/26 02:33:34;;;;;;;1.00;0.55;;;7.40;90.60;;;;;;5051946;28;20025;-71
2021/05/26 02:36:00;;;;;;;0.20;0.20;;;7.40;90.80;;;;;;5051722;28;20025;-71
2021/05/26 02:38:25;;;;;;;0.20;0.20;;;7.40;90.70;;;;;;5051863;28;20431;-71
2021/05/26 02:40:51;;;;;;;0.20;0.20;;;7.50;90.50;;;;;;5033897;28;20472;-71
2021/05/26 02:43:17;;;;;;;0.20;0.20;;;7.70;90.30;;;;;;5051834;28;20108;-71
2021/05/26 02:45:42;;;;;;;0.35;0.35;;;7.80;89.40;;;;;;5051718;28;20050;-71
2021/05/26 02:48:08;;;;;;;0.45;0.40;;;7.80;89.70;;;;;;5051781;28;20029;-71
2021/05/26 02:50:34;;;;;;;0.20;0.20;;;7.80;88.30;;;;;;5051675;28;20051;-74
2021/05/26 02:53:00;;;;;;;0.43;0.43;;;7.80;89.30;;;;;;5051646;28;20083;-71
2021/05/26 02:55:27;;;;;;;0.35;0.35;;;7.70;88.70;;;;;;5051626;28;20025;-71
2021/05/26 02:57:53;;;;;;;0.65;0.40;;;7.70;89.20;;;;;;5051508;28;20029;-71
2021/05/26 03:00:22;;;;;;;0.30;0.30;;;7.80;89.60;;;;;;5051664;28;20021;-71
2021/05/26 03:02:48;;;;;;;0.30;0.30;;;7.90;88.50;;;;;;5034128;28;20361;-73
2021/05/26 03:05:16;;;;;;;1.08;1.02;;;7.90;88.10;;;;;;5033766;28;20108;-71
2021/05/26 03:07:43;;;;;;;0.30;0.30;;;7.90;88.90;;;;;;5051435;28;20028;-71
2021/05/26 03:10:11;;;;;;;0.30;0.30;;;7.90;87.80;;;;;;5051446;28;20493;-73
2021/05/26 03:12:37;;;;;;;0.30;0.30;;;7.70;88.60;;;;;;5033788;28;20067;-71
2021/05/26 03:15:06;;;;;;;0.20;0.20;;;7.80;89.30;;;;;;5051496;28;20032;-73
2021/05/26 03:17:32;;;;;;;0.20;0.20;;;7.80;89.10;;;;;;5051427;28;20055;-71
2021/05/26 03:19:58;;;;;;;0.10;0.10;;;7.90;88.60;;;;;;5051413;28;20100;-73
2021/05/26 03:22:25;;;;;;;0.20;0.20;;;7.90;89.70;;;;;;5051319;28;20096;-73
2021/05/26 03:24:51;;;;;;;0.20;0.20;;;8.00;89.60;;;;;;5033658;28;20049;-71
2021/05/26 03:27:19;;;;;;;0.30;0.30;;;8.00;89.80;;;;;;5051307;28;20025;-71
2021/05/26 03:29:45;;;;;;;0.20;0.20;;;8.00;88.80;;;;;;5017146;28;20045;-73
2021/05/26 03:32:11;;;;;;;0.20;0.20;;;8.10;89.70;;;;;;5051478;28;20118;-74
2021/05/26 03:34:37;;;;;;;0.20;0.20;;;8.20;88.50;;;;;;5033527;28;20032;-71
2021/05/26 03:37:03;;;;;;;0.20;0.20;;;8.10;88.40;;;;;;5033890;28;20033;-73
2021/05/26 03:39:28;;;;;;;0.25;0.25;;;8.20;88.50;;;;;;5055115;28;20029;-71
2021/05/26 03:41:54;;;;;;;0.20;0.20;;;8.30;88.20;;;;;;5055033;28;20060;-71
2021/05/26 03:44:20;;;;;;;0.20;0.20;;;8.30;87.90;;;;;;5055037;28;20020;-71
2021/05/26 03:46:45;;;;;;;0.20;0.20;;;8.30;88.80;;;;;;5054861;28;20032;-74
2021/05/26 03:49:11;;;;;;;0.30;0.30;;;8.30;88.30;;;;;;5054973;28;20392;-73
2021/05/26 03:51:37;;;;;;;0.20;0.20;;;8.40;89.00;;;;;;5054676;28;20222;-73
2021/05/26 03:54:03;;;;;;;0.20;0.20;;;8.40;88.80;;;;;;5060999;23;20127;-73
2021/05/26 03:56:29;;;;;;;0.20;0.20;;;8.30;88.50;;;;;;5094535;28;20417;-73
2021/05/26 03:58:57;;;;;;;0.20;0.20;;;8.30;89.90;;;;;;5077017;28;20157;-73
2021/05/26 04:01:23;;;;;;;0.20;0.20;;;8.40;89.60;;;;;;5095150;28;20023;-73
2021/05/26 04:03:51;;;;;;;0.20;0.20;;;8.50;89.30;;;;;;5077050;28;20026;-73
2021/05/26 04:06:16;;;;;;;0.17;0.17;;;8.50;90.10;;;;;;5077104;28;20024;-73
2021/05/26 04:08:42;;;;;;;0.10;0.10;;;8.50;90.00;;;;;;5076911;28;20054;-74
2021/05/26 04:11:08;;;;;;;0.20;0.20;;;8.40;90.30;;;;;;5095043;28;20061;-73
2021/05/26 04:13:33;;;;;;;0.20;0.20;;;8.60;90.00;;;;;;5094939;28;20024;-74
2021/05/26 04:15:59;;;;;;;0.20;0.20;;;8.50;90.20;;;;;;5094822;28;20032;-74
2021/05/26 04:18:25;;;;;;;0.20;0.20;;;8.40;89.70;;;;;;5094798;28;20470;-74
2021/05/26 04:20:50;;;;;;;0.20;0.20;;;8.30;90.30;;;;;;5094795;28;20355;-73
2021/05/26 04:23:16;;;;;;;0.43;0.38;;;8.30;90.50;;;;;;5076573;28;20035;-74
2021/05/26 04:25:48;;;;;;;0.22;0.22;;;8.30;90.50;;;;;;5095014;28;20113;-73
2021/05/26 04:28:13;;;;;;;0.20;0.20;;;8.40;90.70;;;;;;5076475;28;20058;-74
2021/05/26 04:30:39;;;;;;;0.20;0.20;;;8.30;90.30;;;;;;5094594;28;20418;-74
2021/05/26 04:33:05;;;;;;;0.20;0.20;;;8.30;90.70;;;;;;5094513;28;20032;-74
2021/05/26 04:35:30;;;;;;;0.20;0.20;;;8.30;90.40;;;;;;5076188;28;20024;-73
2021/05/26 04:37:56;;;;;;;0.20;0.20;;;8.40;90.30;;;;;;5094438;28;20494;-74
2021/05/26 04:40:22;;;;;;;0.20;0.20;;;8.40;90.20;;;;;;5094409;28;20027;-74
2021/05/26 04:42:47;;;;;;;0.52;0.52;;;8.50;90.20;;;;;;5094251;28;20103;-74
2021/05/26 04:45:14;;;;;;;0.30;0.30;;;8.50;89.90;;;;;;5094172;28;20028;-74
2021/05/26 04:47:39;;;;;;;0.50;0.50;;;8.60;90.00;;;;;;5093682;28;20135;-73
2021/05/26 04:50:06;;;;;;;0.20;0.20;;;8.60;89.80;;;;;;5094151;28;20060;-74
2021/05/26 04:52:31;;;;;;;0.20;0.20;;;8.50;90.20;;;;;;5076036;28;20022;-74
2021/05/26 04:54:57;;;;;;;0.20;0.20;;;8.40;90.40;;;;;;5094049;28;20032;-74
2021/05/26 04:57:23;;;;;;;0.20;0.20;;;8.50;90.70;;;;;;5093974;28;20028;-74
2021/05/26 04:59:49;;;;;;;0.30;0.30;;;8.50;90.60;;;;;;5075759;28;20046;-74
2021/05/26 05:02:14;;;;;;;0.20;0.20;;;8.60;90.60;;;;;;5093933;28;20536;-74
2021/05/26 05:04:40;;;;;;;0.20;0.20;;;8.70;88.80;;;;;;5093779;28;20024;-74
2021/05/26 05:07:06;;;;;;;0.30;0.30;;;8.70;89.50;;;;;;5093859;28;20031;-74
2021/05/26 05:09:31;;;;;;;0.20;0.20;;;8.70;90.00;;;;;;5075732;28;20104;-74
2021/05/26 05:11:58;;;;;;;0.47;0.47;;;8.80;90.30;;;;;;5075786;28;20130;-74
2021/05/26 05:14:24;;;;;;;0.40;0.40;;;8.90;90.20;;;;;;5075581;28;20097;-74
2021/05/26 05:16:50;;;;;;;0.20;0.20;;;8.80;90.50;;;;;;5075436;28;20287;-74
2021/05/26 05:19:15;;;;;;;0.20;0.20;;;8.80;90.20;;;;;;5075605;28;20103;-73
2021/05/26 05:21:41;;;;;;;0.20;0.20;;;9.10;90.20;;;;;;5058852;28;20091;-74
2021/05/26 05:24:07;;;;;;;0.47;0.47;;;9.40;88.90;;;;;;5093553;28;20016;-74
2021/05/26 05:26:33;;;;;;;0.75;0.40;;;9.50;86.20;;;;;;5075159;28;20028;-74
2021/05/26 05:28:59;;;;;;;0.20;0.20;;;9.50;86.00;;;;;;5093323;28;20099;-75
2021/05/26 05:31:25;;;;;;;0.20;0.20;;;9.60;86.00;;;;;;5093252;28;20032;-74
2021/05/26 05:33:51;;;;;;;0.28;0.28;;;9.60;86.40;;;;;;5093323;28;20085;-74
2021/05/26 05:36:16;;;;;;;1.15;0.38;;;9.50;86.90;;;;;;5075043;28;20031;-74
2021/05/26 05:38:42;;;;;;;0.20;0.20;;;9.60;86.50;;;;;;5074843;28;20020;-74
2021/05/26 05:41:08;;;;;;;0.50;0.50;;;9.60;84.80;;;;;;5092966;28;20091;-74
2021/05/26 05:43:36;;;;;;;0.20;0.20;;;9.40;84.60;;;;;;5074590;28;20475;-74
2021/05/26 05:46:02;;;;;;;0.52;0.52;;;9.40;86.10;;;;;;5074889;28;20028;-74
2021/05/26 05:48:28;;;;;;;0.17;0.17;;;9.50;85.50;;;;;;5074041;28;20028;-74
2021/05/26 05:50:53;;;;;;;0.20;0.20;;;9.50;86.60;;;;;;5092896;28;20036;-74
2021/05/26 05:53:19;;;;;;;0.20;0.20;;;9.60;86.00;;;;;;5068320;28;20024;-74
2021/05/26 05:55:45;;;;;;;0.20;0.20;;;9.80;85.60;;;;;;5092325;28;20536;-74
2021/05/26 05:58:12;;;;;;;0.20;0.20;;;10.00;85.40;;;;;;5082853;28;20012;-73
2021/05/26 06:00:39;;;;;;;0.20;0.20;;;10.10;85.10;;;;;;5094122;28;20022;-73
2021/05/26 06:03:05;;;;;;;0.20;0.20;;;10.20;85.80;;;;;;5105225;28;20406;-73
2021/05/26 06:05:31;;;;;;;0.20;0.20;;;10.40;85.00;;;;;;5094802;28;20030;-74
2021/05/26 06:07:58;;;;;;;0.15;0.15;;;10.40;85.40;;;;;;5069171;28;20035;-74
2021/05/26 06:10:23;;;;;;;6.40;0.73;;;10.60;85.60;;;;;;5112604;28;20106;-74
2021/05/26 06:12:53;;;;;;;0.20;0.20;;;10.50;84.40;;;;;;5095810;28;20112;-74
2021/05/26 06:15:19;;;;;;;0.20;0.20;;;10.60;84.30;;;;;;5091696;28;20036;-74
2021/05/26 06:17:45;;;;;;;0.20;0.20;;;10.80;83.00;;;;;;5091978;28;20043;-74
2021/05/26 06:20:30;;;;;;;0.20;0.20;;;10.90;82.60;;;;;;5083765;28;20027;-74
2021/05/26 06:22:57;;;;;;;0.47;0.47;;;11.10;82.30;;;;;;5091003;28;20028;-74
2021/05/26 06:25:23;;;;;;;0.20;0.20;;;11.30;81.90;;;;;;5091686;28;20024;-74
2021/05/26 06:27:48;;;;;;;0.20;0.20;;;11.30;81.80;;;;;;5060279;28;20027;-74
2021/05/26 06:30:14;;;;;;;0.20;0.20;;;11.40;79.60;;;;;;5075469;28;20027;-74
2021/05/26 06:32:40;;;;;;;0.10;0.10;;;11.40;79.40;;;;;;5075010;28;20395;-74
2021/05/26 06:35:06;;;;;;;0.20;0.20;;;11.60;78.10;;;;;;5098912;28;20486;-74
2021/05/26 06:37:32;;;;;;;0.13;0.13;;;11.80;78.70;;;;;;5091366;28;20036;-74
2021/05/26 06:39:58;;;;;;;0.20;0.20;;;11.90;77.20;;;;;;5081266;28;20174;-74
2021/05/26 06:42:24;;;;;;;0.30;0.30;;;12.00;78.30;;;;;;5091795;28;20024;-74
2021/05/26 06:44:50;;;;;;;0.20;0.20;;;12.10;76.30;;;;;;5090875;28;20065;-74
2021/05/26 06:47:15;;;;;;;0.20;0.20;;;12.10;76.40;;;;;;5091261;28;20015;-73
2021/05/26 06:49:41;;;;;;;0.20;0.20;;;12.20;76.60;;;;;;5109272;28;20356;-74
2021/05/26 06:52:07;;;;;;;0.20;0.20;;;12.30;77.30;;;;;;5085874;28;20024;-74
2021/05/26 06:54:34;;;;;;;0.30;0.30;;;12.30;75.70;;;;;;5072865;28;20032;-74
2021/05/26 06:57:00;;;;;;;0.20;0.20;;;12.30;75.70;;;;;;5072004;28;20387;-74
2021/05/26 06:59:26;;;;;;;0.30;0.30;;;12.30;75.70;;;;;;5100782;28;20020;-74
2021/05/26 07:01:52;;;;;;;0.20;0.20;;;12.40;76.10;;;;;;5071863;28;20100;-74
2021/05/26 07:04:18;;;;;;;0.20;0.20;;;12.50;75.00;;;;;;5070783;28;20020;-74
2021/05/26 07:06:44;;;;;;;0.20;0.20;;;12.70;76.50;;;;;;5090655;28;20402;-73
2021/05/26 07:09:09;;;;;;;0.15;0.15;;;12.90;75.20;;;;;;5072294;28;20020;-74
2021/05/26 07:11:35;;;;;;;0.20;0.20;;;12.90;73.80;;;;;;5074043;28;20028;-74
2021/05/26 07:14:01;;;;;;;0.20;0.20;;;13.00;73.30;;;;;;5094137;28;20078;-74
2021/05/26 07:16:27;;;;;;;0.20;0.20;;;13.10;73.00;;;;;;5076195;28;20024;-74
2021/05/26 07:18:57;;;;;;;0.15;0.15;;;13.20;73.90;;;;;;5096636;28;20034;-74
2021/05/26 07:21:23;;;;;;;0.32;0.32;;;13.30;73.70;;;;;;5076317;28;20017;-74
2021/05/26 07:23:49;;;;;;;0.10;0.10;;;13.40;72.40;;;;;;5091656;28;20693;-73
2021/05/26 07:26:14;;;;;;;0.35;0.35;;;13.30;71.60;;;;;;5059431;28;20040;-73
2021/05/26 07:28:41;;;;;;;0.20;0.20;;;13.40;72.20;;;;;;5095513;28;20059;-74
2021/05/26 07:31:07;;;;;;;0.20;0.20;;;13.40;73.30;;;;;;5076328;28;20032;-74
2021/05/26 07:33:33;;;;;;;0.10;0.10;;;13.60;72.10;;;;;;5075650;28;20440;-74
2021/05/26 07:35:59;;;;;;;0.10;0.10;;;13.70;72.10;;;;;;5093968;28;20027;-74
2021/05/26 07:38:24;;;;;;;0.38;0.30;;;13.90;70.30;;;;;;5075994;28;20020;-74
2021/05/26 07:40:50;;;;;;;0.15;0.15;;;14.00;67.80;;;;;;5092317;28;20077;-74
2021/05/26 07:43:16;;;;;;;0.10;0.10;;;14.20;70.00;;;;;;5095572;28;20474;-74
2021/05/26 07:45:42;;;;;;;0.10;0.10;;;14.30;63.20;;;;;;5093757;28;20035;-74
2021/05/26 07:48:08;;;;;;;0.10;0.10;;;14.40;64.50;;;;;;5093624;28;20040;-74
2021/05/26 07:50:36;;;;;;;0.15;0.15;;;14.40;57.40;;;;;;5093844;28;20036;-74
2021/05/26 07:53:03;;;;;;;0.20;0.20;;;14.60;57.70;;;;;;5075813;28;20031;-74
2021/05/26 07:55:29;;;;;;;0.20;0.20;;;14.80;57.40;;;;;;5075781;28;20024;-75
2021/05/26 07:57:55;;;;;;;0.20;0.20;;;14.90;55.60;;;;;;5092299;28;20028;-74
2021/05/26 08:00:21;;;;;;;0.10;0.10;;;14.90;53.30;;;;;;5094534;28;20046;-74
2021/05/26 08:02:48;;;;;;;0.10;0.10;;;15.10;53.90;;;;;;5075655;28;20081;-74
2021/05/26 08:05:15;;;;;;;0.10;0.10;;;15.40;52.40;;;;;;5092553;28;20016;-74
2021/05/26 08:07:41;;;;;;;0.10;0.10;;;15.60;52.20;;;;;;5075411;28;20027;-74
2021/05/26 08:10:08;;;;;;;0.17;0.17;;;15.50;52.60;;;;;;5076281;28;20020;-74
2021/05/26 08:12:33;;;;;;;0.43;0.43;;;15.70;54.00;;;;;;5093671;28;20046;-74
2021/05/26 08:14:59;;;;;;;0.10;0.10;;;15.80;52.80;;;;;;5096163;28;20047;-74
2021/05/26 08:17:25;;;;;;;1.00;0.52;;;16.10;51.80;;;;;;5093345;28;20024;-74
2021/05/26 08:19:51;;;;;;;0.75;0.73;;;16.00;50.60;;;;;;5091864;28;20522;-75
2021/05/26 08:22:17;;;;;;;0.20;0.20;;;16.00;50.60;;;;;;5072981;28;20027;-74
2021/05/26 08:24:43;;;;;;;0.20;0.20;;;16.00;49.30;;;;;;5073217;28;20383;-75
2021/05/26 08:27:08;;;;;;;0.10;0.10;;;16.20;49.10;;;;;;5091952;28;20471;-75
2021/05/26 08:29:34;;;;;;;0.20;0.20;;;16.10;48.00;;;;;;5061581;28;20398;-75
2021/05/26 08:32:01;;;;;;;0.30;0.30;;;16.30;48.40;;;;;;5074685;28;20457;-74
2021/05/26 08:34:27;;;;;;;0.13;0.13;;;16.10;47.90;;;;;;5093159;28;20368;-74
2021/05/26 08:36:53;;;;;;;0.10;0.10;;;16.20;48.90;;;;;;5092894;28;20020;-74
2021/05/26 08:39:20;;;;;;;0.13;0.13;;;16.20;48.30;;;;;;5092773;28;20050;-75
2021/05/26 08:41:51;;;;;;;0.20;0.20;;;16.30;46.40;;;;;;5058290;28;20070;-74
2021/05/26 08:44:17;;;;;;;0.20;0.20;;;16.30;47.50;;;;;;5078728;28;20102;-74
2021/05/26 08:46:44;;;;;;;0.10;0.10;;;16.10;47.00;;;;;;5074523;28;20410;-74
2021/05/26 08:49:11;;;;;;;0.10;0.10;;;16.10;47.20;;;;;;5091596;28;20024;-74
2021/05/26 08:51:36;;;;;;;0.10;0.10;;;15.90;47.80;;;;;;5055259;28;20022;-74
2021/05/26 08:54:03;;;;;;;0.20;0.20;;;15.90;48.20;;;;;;5091699;28;20138;-74
2021/05/26 08:56:29;;;;;;;0.10;0.10;;;15.70;47.40;;;;;;5092647;28;20113;-74
2021/05/26 08:58:56;;;;;;;6.03;0.30;;;16.20;48.00;;;;;;5092135;28;20052;-74
2021/05/26 09:01:21;;;;;;;0.20;0.20;;;16.40;47.80;;;;;;5074584;28;20116;-74
2021/05/26 09:03:52;;;;;;;0.10;0.10;;;16.50;47.30;;;;;;5092467;28;20392;-75
2021/05/26 09:06:18;;;;;;;0.10;0.10;;;16.80;46.90;;;;;;5068117;28;20078;-74
2021/05/26 09:08:50;;;;;;;0.10;0.10;;;17.40;46.30;;;;;;5093567;28;20027;-74
2021/05/26 09:11:28;;;;;;;0.10;0.10;;;17.20;45.70;;;;;;5095097;28;20024;-75
2021/05/26 09:13:55;;;;;;;0.10;0.10;;;17.50;46.70;;;;;;5069763;28;20419;-74
2021/05/26 09:16:24;;;;;;;0.17;0.17;;;17.50;45.60;;;;;;5074240;28;20028;-74
2021/05/26 09:19:05;;;;;;;0.10;0.10;;;17.60;45.60;;;;;;5093031;28;20027;-74
2021/05/26 09:21:39;;;;;;;0.10;0.10;;;17.70;45.40;;;;;;5088308;28;20009;-75
2021/05/26 09:24:20;;;;;;;0.10;0.10;;;17.70;46.10;;;;;;5090096;28;20119;-74
2021/05/26 09:26:57;;;;;;;0.10;0.10;;;18.20;45.30;;;;;;5087622;28;20024;-74
2021/05/26 09:29:24;;;;;;;0.10;0.10;;;18.00;43.70;;;;;;5091841;28;20104;-74
2021/05/26 09:31:52;;;;;;;0.10;0.10;;;17.70;45.70;;;;;;5073822;28;20043;-75
2021/05/26 09:34:37;;;;;;;0.10;0.10;;;17.50;46.10;;;;;;5093842;28;20020;-74
2021/05/26 09:37:07;;;;;;;0.17;0.17;;;17.40;45.90;;;;;;5091763;28;20024;-74
2021/05/26 09:39:49;;;;;;;0.10;0.10;;;17.30;46.40;;;;;;5073644;28;20025;-74
2021/05/26 09:42:31;;;;;;;0.10;0.10;;;17.30;46.80;;;;;;5091351;28;20032;-74
2021/05/26 09:45:15;;;;;;;;;;;17.40;47.70;;;;;;5053758;28;20592;-74
2021/05/26 09:47:48;;;;;;;0.10;0.10;;;17.50;47.40;;;;;;5089672;28;20256;-75
2021/05/26 09:50:29;;;;;;;0.10;0.10;;;17.40;47.60;;;;;;5073166;28;20028;-74
2021/05/26 09:53:04;;;;;;;0.10;0.10;;;17.50;46.70;;;;;;5073425;28;20020;-76
2021/05/26 09:55:45;;;;;;;0.17;0.17;;;17.40;46.20;;;;;;5087822;28;20063;-75
2021/05/26 09:58:13;;;;;;;0.28;0.28;;;17.80;47.00;;;;;;5073324;28;20078;-75
2021/05/26 10:00:41;;;;;;;0.10;0.10;;;18.50;46.50;;;;;;5086863;28;20047;-75
2021/05/26 10:03:07;;;;;;;0.20;0.13;;;18.80;46.30;;;;;;5092181;28;20475;-75
2021/05/26 10:05:34;;;;;;;0.10;0.10;;;19.40;46.20;;;;;;5105052;28;20546;-75
2021/05/26 10:08:02;;;;;;;0.10;0.10;;;20.00;44.90;;;;;;5062590;28;20028;-75
2021/05/26 10:10:29;;;;;;;1.45;0.28;;;20.60;43.40;;;;;;5094224;28;20044;-75
2021/05/26 10:13:05;;;;;;;0.10;0.10;;;20.60;43.30;;;;;;5074520;28;20098;-74
2021/05/26 10:15:33;;;;;;;0.17;0.10;;;20.20;43.60;;;;;;5092403;28;20048;-74
2021/05/26 10:18:00;;;;;;;0.13;0.13;;;19.70;43.00;;;;;;5092986;28;20095;-75
2021/05/26 10:20:43;;;;;;;0.10;0.10;;;19.90;44.60;;;;;;5092379;28;20053;-75
2021/05/26 10:23:13;;;;;;;0.10;0.10;;;20.60;44.80;;;;;;5056957;28;20067;-74
2021/05/26 10:25:44;;;;;;;3.58;2.58;;;20.60;44.20;;;;;;5087185;28;20111;-75
2021/05/26 10:28:30;;;;;;;0.10;0.10;;;20.20;44.60;;;;;;5088751;28;20429;-74
2021/05/26 10:30:57;;;;;;;0.20;0.20;;;19.90;44.70;;;;;;5092894;28;20088;-75
2021/05/26 10:33:44;;;;;;;5.68;1.00;;;20.30;44.50;;;;;;5075120;28;20035;-75
2021/05/26 10:36:11;;;;;;;0.10;0.10;;;20.20;44.50;;;;;;5103845;28;20514;-74
2021/05/26 10:38:57;;;;;;;0.10;0.10;;;20.30;44.70;;;;;;5092299;28;20016;-75
2021/05/26 10:41:23;;;;;;;0.08;0.08;;;20.90;44.00;;;;;;5092186;28;20029;-74
2021/05/26 10:43:57;;;;;;;0.10;0.10;;;20.90;44.10;;;;;;5092367;28;20016;-75
2021/05/26 10:46:38;;;;;;;0.05;0.05;;;21.10;43.10;;;;;;5090206;28;20386;-75
2021/05/26 10:49:06;;;;;;;0.35;0.35;;;21.00;42.90;;;;;;5094196;28;20020;-74
2021/05/26 10:51:53;;;;;;;0.10;0.10;;;21.10;43.40;;;;;;5087584;28;20024;-75
2021/05/26 10:54:40;;;;;;;0.35;0.35;;;21.60;43.80;;;;;;5091968;28;20103;-74
2021/05/26 10:57:10;;;;;;;0.10;0.10;;;21.60;41.20;;;;;;5076101;28;20487;-74
2021/05/26 10:59:36;;;;;;;0.10;0.10;;;21.70;41.60;;;;;;5091972;28;20032;-74
2021/05/26 11:02:02;;;;;;;0.00;0.00;;;21.80;41.60;;;;;;5073741;28;20402;-75
2021/05/26 11:04:29;;;;;;;0.10;0.10;;;21.70;41.30;;;;;;5057151;28;20108;-75
2021/05/26 11:07:22;;;;;;;0.00;0.00;;;21.40;41.40;;;;;;5073754;28;20395;-75
2021/05/26 11:10:05;;;;;;;0.10;0.10;;;21.10;43.20;;;;;;5072921;28;20051;-75
2021/05/26 11:12:55;;;;;;;0.10;0.10;;;21.10;43.50;;;;;;5094158;28;20479;-74
2021/05/26 11:15:40;;;;;;;0.10;0.10;;;20.50;42.50;;;;;;5106962;28;20028;-75
2021/05/26 11:18:11;;;;;;;0.20;0.20;;;20.40;44.40;;;;;;5073870;28;20028;-75
2021/05/26 11:20:37;;;;;;;1.90;0.50;;;20.90;43.40;;;;;;5094725;28;20027;-74
2021/05/26 11:23:14;;;;;;;0.10;0.10;;;21.10;41.30;;;;;;5092100;28;20483;-75
2021/05/26 11:25:53;;;;;;;0.93;0.52;;;21.10;42.60;;;;;;5057008;28;20475;-74
2021/05/26 11:28:31;;;;;;;65.00;2.08;;;20.80;42.20;;;;;;5091897;28;20107;-75
2021/05/26 11:31:10;;;;;;;0.10;0.10;;;21.00;42.50;;;;;;5073516;28;20103;-75
2021/05/26 11:33:36;;;;;;;0.28;0.20;;;21.70;40.50;;;;;;5073486;28;20016;-75
2021/05/26 11:36:04;;;;;;;0.10;0.10;;;21.40;41.70;;;;;;5091614;28;20053;-74
2021/05/26 11:38:32;;;;;;;0.10;0.10;;;21.10;40.80;;;;;;5073713;28;20066;-74
2021/05/26 11:41:00;;;;;;;0.10;0.10;;;21.00;42.20;;;;;;5093502;28;20105;-75
2021/05/26 11:43:30;;;;;;;0.10;0.10;;;21.00;42.50;;;;;;5091513;28;20024;-75
2021/05/26 11:46:08;;;;;;;0.03;0.03;;;21.10;41.80;;;;;;5091676;28;20016;-74
2021/05/26 11:48:34;;;;;;;0.10;0.10;;;20.70;41.90;;;;;;5091370;28;20031;-74
2021/05/26 11:51:00;;;;;;;0.20;0.20;;;20.60;43.30;;;;;;5091178;28;20043;-74
2021/05/26 11:53:27;;;;;;;0.00;0.00;;;20.40;43.10;;;;;;5073301;28;20380;-75
2021/05/26 11:55:59;;;;;;;0.10;0.10;;;20.50;42.70;;;;;;5099375;28;20649;-75
2021/05/26 11:58:37;;;;;;;;;;;20.50;42.90;;;;;;5096287;28;20383;-75
2021/05/26 12:01:09;;;;;;;0.30;0.30;;;20.20;43.10;;;;;;5093716;28;19915;-75
2021/05/26 12:03:35;;;;;;;0.10;0.10;;;19.70;42.90;;;;;;5093398;28;20024;-75
2021/05/26 12:06:01;;;;;;;0.10;0.10;;;19.70;45.10;;;;;;5091719;28;20039;-75
2021/05/26 12:08:33;;;;;;;0.05;0.05;;;19.60;44.20;;;;;;5092830;28;20103;-76
2021/05/26 12:11:14;;;;;;;0.10;0.10;;;19.50;45.10;;;;;;5094132;28;20024;-75
2021/05/26 12:13:45;;;;;;;0.08;0.08;;;19.60;44.80;;;;;;5094041;28;20032;-75
2021/05/26 12:16:16;;;;;;;0.13;0.13;;;19.50;45.50;;;;;;5088510;28;20460;-76
2021/05/26 12:18:53;;;;;;;0.10;0.10;;;19.30;45.50;;;;;;5074182;28;20115;-76
2021/05/26 12:21:25;;;;;;;0.10;0.10;;;19.10;46.00;;;;;;5075193;28;20431;-76
2021/05/26 12:24:13;;;;;;;0.10;0.10;;;19.10;46.10;;;;;;5075436;28;20027;-76
2021/05/26 12:26:45;;;;;;;0.20;0.20;;;19.10;46.60;;;;;;5095027;28;20439;-76
2021/05/26 12:29:11;;;;;;;;;;;19.10;46.10;;;;;;5058712;28;20031;-75
2021/05/26 12:31:39;;;;;;;0.30;0.30;;;18.90;47.30;;;;;;5096867;28;19912;-76
2021/05/26 12:34:16;;;;;;;0.10;0.10;;;18.70;47.00;;;;;;5073178;28;20032;-75
2021/05/26 12:36:53;;;;;;;0.10;0.10;;;18.40;47.40;;;;;;5088384;28;20081;-76
2021/05/26 12:39:19;;;;;;;0.10;0.10;;;18.40;47.90;;;;;;5092886;28;20154;-75
2021/05/26 12:41:53;;;;;;;0.30;0.30;;;18.40;48.40;;;;;;5095498;28;20051;-75
2021/05/26 12:44:20;;;;;;;0.20;0.20;;;18.50;47.70;;;;;;5076371;28;20020;-75
2021/05/26 12:46:52;;;;;;;0.28;0.28;;;18.10;47.50;;;;;;5076412;28;20430;-75
2021/05/26 12:49:27;;;;;;;0.38;0.38;;;18.10;48.40;;;;;;5094567;28;20054;-75
2021/05/26 12:51:53;;;;;;;0.35;0.35;;;17.90;48.30;;;;;;5058970;28;20038;-74
2021/05/26 12:54:20;;;;;;;0.10;0.10;;;17.80;48.50;;;;;;5093448;28;20028;-74
2021/05/26 12:56:46;;;;;;;3.13;1.63;;;17.70;49.80;;;;;;5083609;28;20043;-75
2021/05/26 12:59:12;;;;;;;0.22;0.17;;;17.50;49.50;;;;;;5075094;28;20111;-74
2021/05/26 13:01:44;;;;;;;0.17;0.17;;;17.50;50.00;;;;;;5092416;28;20150;-75